Time;durP1;ratioP1;P1;durP2;ratioP2;P2;SDS_P1;SDS_P2;PMS_P1;PMS_P2;Temp;Humidity;BMP_temperature;BMP_pressure;BME280_temperature;BME280_humidity;BME280_pressure;Samples;Min_cycle;Max_cycle;Signal;HPM_P1;HPM_P2
2023/04/21 00:02:26;;;;;;;4.57;4.17;;;22.00;56.90;;;;;;5027883;28;20545;-79
2023/04/21 00:04:55;;;;;;;4.50;4.20;;;22.00;56.90;;;;;;5028002;28;20514;-78
2023/04/21 00:07:25;;;;;;;4.37;4.00;;;22.00;56.90;;;;;;5015606;28;20480;-79
2023/04/21 00:09:53;;;;;;;4.77;4.47;;;22.00;56.90;;;;;;5025445;28;20554;-79
2023/04/21 00:12:21;;;;;;;4.13;3.83;;;22.00;56.90;;;;;;5023344;28;20939;-78
2023/04/21 00:14:49;;;;;;;4.20;3.90;;;22.00;56.90;;;;;;5020369;28;20579;-78
2023/04/21 00:17:17;;;;;;;4.30;4.00;;;22.00;56.80;;;;;;5020242;28;20986;-79
2023/04/21 00:19:46;;;;;;;4.30;4.00;;;22.00;56.80;;;;;;5018641;28;20553;-79
2023/04/21 00:22:14;;;;;;;4.07;3.77;;;22.00;56.80;;;;;;5020622;28;20471;-79
2023/04/21 00:24:44;;;;;;;3.93;3.63;;;22.00;56.80;;;;;;5024653;28;20467;-79
2023/04/21 00:27:12;;;;;;;4.37;4.07;;;22.00;56.80;;;;;;5024530;28;20749;-79
2023/04/21 00:29:40;;;;;;;4.77;4.37;;;22.00;56.80;;;;;;5021080;28;21051;-79
2023/04/21 00:32:09;;;;;;;4.23;3.93;;;22.00;56.80;;;;;;5026089;28;20470;-79
2023/04/21 00:34:37;;;;;;;3.40;3.20;;;21.90;56.80;;;;;;5031763;28;20488;-79
2023/04/21 00:37:05;;;;;;;3.80;3.50;;;21.90;56.80;;;;;;5030745;28;20490;-79
2023/04/21 00:39:34;;;;;;;3.60;3.40;;;21.90;56.80;;;;;;5010902;28;20452;-79
2023/04/21 00:42:03;;;;;;;4.37;4.07;;;21.90;56.80;;;;;;5014653;28;20547;-79
2023/04/21 00:44:31;;;;;;;3.70;3.40;;;21.90;56.80;;;;;;5027827;28;20494;-79
2023/04/21 00:46:59;;;;;;;3.80;3.60;;;21.90;56.80;;;;;;5018942;28;20570;-80
2023/04/21 00:49:28;;;;;;;4.53;4.20;;;21.90;56.80;;;;;;5029498;28;20493;-80
2023/04/21 00:51:56;;;;;;;3.90;3.60;;;21.90;56.80;;;;;;5013903;28;20597;-80
2023/04/21 00:54:25;;;;;;;3.73;3.53;;;21.90;56.80;;;;;;5029248;28;20494;-80
2023/04/21 00:56:57;;;;;;;4.47;4.17;;;21.90;56.80;;;;;;5028412;28;20462;-80
2023/04/21 00:59:26;;;;;;;3.80;3.60;;;21.80;56.80;;;;;;5025131;28;21013;-79
2023/04/21 01:01:56;;;;;;;4.13;3.87;;;21.80;56.80;;;;;;5011552;28;20481;-79
2023/04/21 01:04:25;;;;;;;3.90;3.60;;;21.80;56.80;;;;;;5021448;28;20540;-78
2023/04/21 01:06:53;;;;;;;3.93;3.63;;;21.80;56.80;;;;;;5020700;28;20512;-79
2023/04/21 01:09:23;;;;;;;4.30;4.00;;;21.80;56.80;;;;;;5027940;28;20493;-79
2023/04/21 01:12:02;;;;;;;4.10;3.80;;;21.80;56.80;;;;;;5025932;28;20459;-79
2023/04/21 01:14:31;;;;;;;3.50;3.30;;;21.80;56.80;;;;;;5030255;28;20458;-79
2023/04/21 01:17:00;;;;;;;4.40;4.10;;;21.80;56.70;;;;;;5032491;28;20462;-80
2023/04/21 01:19:33;;;;;;;3.73;3.43;;;21.80;56.70;;;;;;5025339;28;20937;-80
2023/04/21 01:22:03;;;;;;;3.50;3.30;;;21.80;56.70;;;;;;5025558;28;20541;-79
2023/04/21 01:24:39;;;;;;;3.80;3.60;;;21.80;56.70;;;;;;5014941;28;20485;-79
2023/04/21 01:27:10;;;;;;;3.47;3.23;;;21.80;56.70;;;;;;5032966;28;20473;-80
2023/04/21 01:29:39;;;;;;;3.60;3.40;;;21.80;56.70;;;;;;5012576;28;20558;-79
2023/04/21 01:32:10;;;;;;;3.90;3.70;;;21.70;56.70;;;;;;5027664;28;20466;-79
2023/04/21 01:34:39;;;;;;;3.40;3.20;;;21.80;56.70;;;;;;5027959;28;20506;-79
2023/04/21 01:37:10;;;;;;;4.10;3.80;;;21.80;56.70;;;;;;5026998;28;20588;-79
2023/04/21 01:39:38;;;;;;;4.17;3.90;;;21.80;56.70;;;;;;5012511;28;20560;-80
2023/04/21 01:42:07;;;;;;;3.83;3.53;;;21.70;56.70;;;;;;5024019;28;20501;-80
2023/04/21 01:44:36;;;;;;;3.70;3.50;;;21.70;56.70;;;;;;5031298;28;20580;-80
2023/04/21 01:47:05;;;;;;;3.40;3.20;;;21.70;56.70;;;;;;5018119;28;20554;-80
2023/04/21 01:49:33;;;;;;;3.23;3.03;;;21.70;56.70;;;;;;5021718;28;20528;-80
2023/04/21 01:52:01;;;;;;;3.43;3.23;;;21.70;56.70;;;;;;5012929;28;20466;-80
2023/04/21 01:54:31;;;;;;;3.53;3.33;;;21.70;56.70;;;;;;5002101;28;20460;-80
2023/04/21 01:56:59;;;;;;;3.20;3.00;;;21.70;56.70;;;;;;5022486;28;20513;-81
2023/04/21 01:59:28;;;;;;;3.43;3.20;;;21.70;56.70;;;;;;5013119;28;20489;-80
2023/04/21 02:01:56;;;;;;;3.40;3.20;;;21.70;56.70;;;;;;5008299;28;20460;-80
2023/04/21 02:04:24;;;;;;;3.40;3.20;;;21.70;56.60;;;;;;5002623;28;20903;-79
2023/04/21 02:06:53;;;;;;;4.07;3.77;;;21.70;56.60;;;;;;5017184;28;20455;-80
2023/04/21 02:09:21;;;;;;;3.20;3.00;;;21.70;56.60;;;;;;5022302;28;20502;-80
2023/04/21 02:11:55;;;;;;;3.80;3.50;;;21.70;56.60;;;;;;5018269;28;21295;-79
2023/04/21 02:14:24;;;;;;;3.50;3.30;;;21.70;56.60;;;;;;5013232;28;20462;-79
2023/04/21 02:16:52;;;;;;;3.27;3.07;;;21.70;56.60;;;;;;5007728;28;20463;-79
2023/04/21 02:19:22;;;;;;;3.40;3.17;;;21.70;56.60;;;;;;5029108;28;20459;-79
2023/04/21 02:21:50;;;;;;;3.40;3.20;;;21.60;56.70;;;;;;5026860;28;20507;-79
2023/04/21 02:24:21;;;;;;;2.67;2.57;;;21.60;56.70;;;;;;5012037;28;20541;-79
2023/04/21 02:26:50;;;;;;;3.00;2.80;;;21.60;56.70;;;;;;5021857;28;21039;-79
2023/04/21 02:29:19;;;;;;;3.60;3.40;;;21.60;56.70;;;;;;5014706;28;20510;-79
2023/04/21 02:31:48;;;;;;;3.33;3.13;;;21.60;56.70;;;;;;5022341;28;20482;-80
2023/04/21 02:34:30;;;;;;;3.93;3.67;;;21.60;56.70;;;;;;5021390;28;20946;-79
2023/04/21 02:36:58;;;;;;;3.43;3.23;;;21.60;56.70;;;;;;5020892;28;20497;-79
2023/04/21 02:39:26;;;;;;;3.07;2.90;;;21.60;56.70;;;;;;5024077;28;21040;-79
2023/04/21 02:41:55;;;;;;;3.03;2.83;;;21.60;56.70;;;;;;5028947;28;20485;-79
2023/04/21 02:44:25;;;;;;;5.40;3.40;;;21.60;56.70;;;;;;5015713;28;20549;-79
2023/04/21 02:46:53;;;;;;;3.40;3.20;;;21.60;56.70;;;;;;5029931;28;20472;-79
2023/04/21 02:49:21;;;;;;;3.10;2.90;;;21.60;56.70;;;;;;5021858;28;20500;-79
2023/04/21 02:51:50;;;;;;;3.00;2.80;;;21.60;56.70;;;;;;5025976;28;20470;-79
2023/04/21 02:54:18;;;;;;;2.90;2.70;;;21.60;56.70;;;;;;5023113;28;20461;-79
2023/04/21 02:56:48;;;;;;;3.10;2.90;;;21.60;56.70;;;;;;5001462;28;20469;-79
2023/04/21 02:59:16;;;;;;;2.80;2.60;;;21.60;56.70;;;;;;5012367;28;20458;-79
2023/04/21 03:01:47;;;;;;;3.10;2.90;;;21.60;56.70;;;;;;5006735;28;20524;-80
2023/04/21 03:04:16;;;;;;;3.27;3.07;;;21.60;56.70;;;;;;5003544;28;20508;-79
2023/04/21 03:06:44;;;;;;;3.07;2.77;;;21.50;56.70;;;;;;5009849;28;20574;-79
2023/04/21 03:09:12;;;;;;;3.27;3.07;;;21.60;56.70;;;;;;5017415;28;20572;-79
2023/04/21 03:11:40;;;;;;;3.50;3.20;;;21.50;56.60;;;;;;5018463;28;20463;-78
2023/04/21 03:14:08;;;;;;;2.77;2.57;;;21.50;56.60;;;;;;5019309;28;20463;-78
2023/04/21 03:16:37;;;;;;;2.83;2.63;;;21.50;56.60;;;;;;5017775;28;20506;-80
2023/04/21 03:19:07;;;;;;;3.00;2.80;;;21.50;56.60;;;;;;5026980;28;20989;-80
2023/04/21 03:21:37;;;;;;;3.17;2.97;;;21.50;56.60;;;;;;4999248;28;20557;-80
2023/04/21 03:24:07;;;;;;;2.93;2.73;;;21.50;56.60;;;;;;5021768;28;20470;-80
2023/04/21 03:26:35;;;;;;;2.50;2.40;;;21.50;56.60;;;;;;5016917;28;20561;-80
2023/04/21 03:29:04;;;;;;;3.03;2.83;;;21.50;56.60;;;;;;5008661;28;21069;-78
2023/04/21 03:31:32;;;;;;;2.97;2.77;;;21.50;56.60;;;;;;5005951;28;20463;-78
2023/04/21 03:34:01;;;;;;;3.17;2.97;;;21.50;56.60;;;;;;5005103;28;20563;-78
2023/04/21 03:36:31;;;;;;;3.03;2.83;;;21.50;56.60;;;;;;5002893;28;20698;-78
2023/04/21 03:38:59;;;;;;;3.67;3.37;;;21.50;56.60;;;;;;5017381;28;20492;-79
2023/04/21 03:41:46;;;;;;;3.10;2.90;;;21.50;56.60;;;;;;5026734;28;20461;-79
2023/04/21 03:44:15;;;;;;;3.07;2.87;;;21.50;56.60;;;;;;5019198;28;20471;-79
2023/04/21 03:46:43;;;;;;;3.00;2.80;;;21.50;56.60;;;;;;5019560;28;20466;-78
2023/04/21 03:49:11;;;;;;;2.63;2.53;;;21.50;56.70;;;;;;5000215;28;20479;-78
2023/04/21 03:51:41;;;;;;;3.00;2.80;;;21.50;56.70;;;;;;5013286;28;20455;-78
2023/04/21 03:54:09;;;;;;;2.83;2.70;;;21.50;56.70;;;;;;5015384;28;20939;-77
2023/04/21 03:56:37;;;;;;;3.40;3.20;;;21.60;56.70;;;;;;5023060;28;20479;-77
2023/04/21 03:59:06;;;;;;;2.90;2.70;;;21.60;56.70;;;;;;5018585;28;20464;-77
2023/04/21 04:01:34;;;;;;;2.70;2.50;;;21.60;56.60;;;;;;5028368;28;20471;-77
2023/04/21 04:04:03;;;;;;;2.90;2.80;;;21.60;56.60;;;;;;5026343;28;20862;-79
2023/04/21 04:06:32;;;;;;;2.40;2.30;;;21.70;56.60;;;;;;5019343;28;20474;-77
2023/04/21 04:09:03;;;;;;;2.60;2.50;;;21.70;56.40;;;;;;5022131;28;20907;-79
2023/04/21 04:11:31;;;;;;;2.33;2.23;;;21.70;56.40;;;;;;5023322;28;20477;-77
2023/04/21 04:14:00;;;;;;;2.17;2.07;;;21.70;56.40;;;;;;5027216;28;20481;-78
2023/04/21 04:16:28;;;;;;;2.73;2.63;;;21.70;56.30;;;;;;5007914;28;20483;-77
2023/04/21 04:18:57;;;;;;;2.40;2.30;;;21.80;56.30;;;;;;5021452;28;20456;-78
2023/04/21 04:21:26;;;;;;;2.57;2.37;;;21.80;56.30;;;;;;5021111;28;21012;-78
2023/04/21 04:23:54;;;;;;;2.80;2.60;;;21.80;56.30;;;;;;5016965;28;20461;-78
2023/04/21 04:26:24;;;;;;;2.50;2.40;;;21.90;56.30;;;;;;5022246;28;20465;-79
2023/04/21 04:28:55;;;;;;;2.97;2.87;;;21.90;56.20;;;;;;5022473;28;20879;-79
2023/04/21 04:31:24;;;;;;;2.97;2.77;;;22.00;56.20;;;;;;5016890;28;20463;-79
2023/04/21 04:33:52;;;;;;;2.97;2.87;;;22.00;56.10;;;;;;5025190;28;20545;-79
2023/04/21 04:36:22;;;;;;;2.70;2.50;;;22.00;56.00;;;;;;4996064;28;20891;-78
2023/04/21 04:38:51;;;;;;;2.23;2.13;;;22.00;56.00;;;;;;5025209;28;20883;-79
2023/04/21 04:41:19;;;;;;;2.30;2.10;;;22.00;55.90;;;;;;5018187;28;20517;-80
2023/04/21 04:43:49;;;;;;;3.00;2.80;;;22.10;55.80;;;;;;5018587;28;20463;-79
2023/04/21 04:46:19;;;;;;;2.60;2.40;;;22.10;55.70;;;;;;5013094;28;20972;-79
2023/04/21 04:48:48;;;;;;;2.60;2.47;;;22.10;55.70;;;;;;5025754;28;20451;-81
2023/04/21 04:51:16;;;;;;;2.63;2.43;;;22.10;55.60;;;;;;5015596;28;20462;-78
2023/04/21 04:53:44;;;;;;;2.80;2.60;;;22.10;55.60;;;;;;5021927;28;20468;-80
2023/04/21 04:56:12;;;;;;;2.93;2.73;;;22.10;55.60;;;;;;5024376;28;20458;-81
2023/04/21 04:58:40;;;;;;;3.07;2.87;;;22.10;55.50;;;;;;5027769;28;20545;-76
2023/04/21 05:01:13;;;;;;;3.60;3.40;;;22.10;55.60;;;;;;5020623;28;20988;-82
2023/04/21 05:03:42;;;;;;;3.00;2.80;;;22.00;55.60;;;;;;5020084;28;20546;-82
2023/04/21 05:06:10;;;;;;;3.43;3.13;;;22.00;55.70;;;;;;5021511;28;20797;-81
2023/04/21 05:08:39;;;;;;;2.87;2.67;;;22.00;55.90;;;;;;5019338;28;21054;-81
2023/04/21 05:11:07;;;;;;;2.50;2.40;;;22.00;56.00;;;;;;5022504;28;20476;-81
2023/04/21 05:13:35;;;;;;;2.67;2.47;;;22.00;56.20;;;;;;5011540;28;21013;-81
2023/04/21 05:16:08;;;;;;;2.97;2.70;;;22.00;56.30;;;;;;5020542;28;20471;-82
2023/04/21 05:18:38;;;;;;;2.47;2.37;;;22.00;56.30;;;;;;5016741;28;20473;-81
2023/04/21 05:21:07;;;;;;;3.00;2.30;;;21.90;56.50;;;;;;5023258;28;20466;-82
2023/04/21 05:23:35;;;;;;;2.40;2.20;;;21.90;56.70;;;;;;5016802;28;20459;-81
2023/04/21 05:26:03;;;;;;;2.87;2.67;;;21.90;56.80;;;;;;5027307;28;20971;-81
2023/04/21 05:28:32;;;;;;;2.70;2.50;;;21.90;56.90;;;;;;5027784;28;20941;-82
2023/04/21 05:31:00;;;;;;;2.60;2.40;;;21.90;57.00;;;;;;5029372;28;20500;-82
2023/04/21 05:33:30;;;;;;;2.90;2.70;;;21.90;57.10;;;;;;5027042;28;20458;-81
2023/04/21 05:36:00;;;;;;;3.37;2.40;;;21.90;57.20;;;;;;5023248;28;20471;-81
2023/04/21 05:38:28;;;;;;;4.00;2.50;;;22.00;57.30;;;;;;5026631;28;20546;-81
2023/04/21 05:40:56;;;;;;;3.80;2.47;;;22.00;57.30;;;;;;5029559;28;20456;-81
2023/04/21 05:43:24;;;;;;;2.90;2.53;;;22.00;57.40;;;;;;5024314;28;20838;-81
2023/04/21 05:45:52;;;;;;;4.10;2.67;;;22.00;57.40;;;;;;5020308;28;20488;-81
2023/04/21 05:48:22;;;;;;;2.70;2.50;;;22.00;57.30;;;;;;5022847;28;20597;-81
2023/04/21 05:50:50;;;;;;;3.93;2.87;;;22.00;57.30;;;;;;5022325;28;20575;-81
2023/04/21 05:53:19;;;;;;;3.13;2.73;;;22.00;57.30;;;;;;5025054;28;20462;-81
2023/04/21 05:55:48;;;;;;;3.13;2.83;;;22.00;57.30;;;;;;5018172;28;20549;-81
2023/04/21 05:58:16;;;;;;;2.90;2.70;;;22.00;57.40;;;;;;5021996;28;21031;-81
2023/04/21 06:00:45;;;;;;;2.93;2.73;;;22.00;57.40;;;;;;5027043;28;20501;-81
2023/04/21 06:03:16;;;;;;;2.97;2.77;;;22.00;57.40;;;;;;5027977;28;20494;-81
2023/04/21 06:05:44;;;;;;;2.83;2.57;;;22.00;57.40;;;;;;5024743;28;21010;-80
2023/04/21 06:08:12;;;;;;;2.83;2.50;;;22.00;57.50;;;;;;4996785;28;20550;-80
2023/04/21 06:10:42;;;;;;;5.23;2.60;;;22.10;57.70;;;;;;5026355;28;20565;-80
2023/04/21 06:13:10;;;;;;;5.17;3.00;;;22.10;57.90;;;;;;5020850;28;20939;-81
2023/04/21 06:15:38;;;;;;;6.93;3.77;;;22.10;58.00;;;;;;5032471;28;20478;-81
2023/04/21 06:18:07;;;;;;;9.07;3.70;;;22.10;58.10;;;;;;5027988;28;20502;-81
2023/04/21 06:20:35;;;;;;;8.50;3.73;;;22.10;58.10;;;;;;5008159;28;20474;-81
2023/04/21 06:23:03;;;;;;;2.93;2.63;;;22.10;58.20;;;;;;5019571;28;20466;-80
2023/04/21 06:25:31;;;;;;;3.30;2.73;;;22.10;58.20;;;;;;5026884;28;20887;-81
2023/04/21 06:28:01;;;;;;;7.03;3.30;;;22.10;58.10;;;;;;5018389;28;20541;-82
2023/04/21 06:30:29;;;;;;;5.67;4.00;;;22.10;58.10;;;;;;5014633;28;20512;-81
2023/04/21 06:32:57;;;;;;;5.10;3.33;;;22.20;58.00;;;;;;5023486;28;20466;-81
2023/04/21 06:35:25;;;;;;;3.67;3.30;;;22.20;57.90;;;;;;5024164;28;20464;-79
2023/04/21 06:37:53;;;;;;;2.73;2.53;;;22.20;57.90;;;;;;5024629;28;20602;-79
2023/04/21 06:40:22;;;;;;;3.53;3.23;;;22.20;58.10;;;;;;5019986;28;20989;-76
2023/04/21 06:42:50;;;;;;;3.53;2.70;;;22.20;58.30;;;;;;5023048;28;20562;-76
2023/04/21 06:45:20;;;;;;;5.93;3.30;;;22.20;59.10;;;;;;5006602;28;20552;-78
2023/04/21 06:47:48;;;;;;;4.70;4.00;;;22.20;59.50;;;;;;5024663;28;20491;-78
2023/04/21 06:50:16;;;;;;;7.93;3.20;;;22.20;59.70;;;;;;5022184;28;20576;-79
2023/04/21 06:52:44;;;;;;;4.07;3.67;;;22.30;59.80;;;;;;5026556;28;20505;-79
2023/04/21 06:55:13;;;;;;;8.70;3.80;;;22.30;59.90;;;;;;5034514;28;20463;-79
2023/04/21 06:57:41;;;;;;;7.53;3.07;;;22.30;59.80;;;;;;5002405;28;20467;-78
2023/04/21 07:00:11;;;;;;;3.23;2.80;;;22.30;59.80;;;;;;5020669;28;20462;-77
2023/04/21 07:02:41;;;;;;;4.67;3.20;;;22.30;59.90;;;;;;5022601;28;20937;-77
2023/04/21 07:05:10;;;;;;;5.60;4.10;;;22.30;59.80;;;;;;5027201;28;21124;-77
2023/04/21 07:07:38;;;;;;;9.00;4.00;;;22.30;60.00;;;;;;5023192;28;21050;-76
2023/04/21 07:10:07;;;;;;;4.97;4.10;;;22.30;59.90;;;;;;5027263;28;21005;-75
2023/04/21 07:12:35;;;;;;;3.73;3.30;;;22.30;59.90;;;;;;5021312;28;20554;-75
2023/04/21 07:15:04;;;;;;;4.27;3.83;;;22.30;59.80;;;;;;5017766;28;20467;-77
2023/04/21 07:17:32;;;;;;;9.80;3.60;;;22.40;59.70;;;;;;5027841;28;20551;-77
2023/04/21 07:20:02;;;;;;;5.37;3.90;;;22.40;59.60;;;;;;5028443;28;20505;-77
2023/04/21 07:22:30;;;;;;;3.90;3.60;;;22.40;59.50;;;;;;5019368;28;20463;-77
2023/04/21 07:24:58;;;;;;;7.03;3.47;;;22.40;59.50;;;;;;5012619;28;20546;-77
2023/04/21 07:27:27;;;;;;;3.90;3.07;;;22.40;59.40;;;;;;5015254;28;20498;-77
2023/04/21 07:29:55;;;;;;;5.63;3.60;;;22.40;59.30;;;;;;5039251;28;20494;-76
2023/04/21 07:32:23;;;;;;;3.07;2.77;;;22.40;59.20;;;;;;5024574;28;20485;-77
2023/04/21 07:34:53;;;;;;;3.10;2.77;;;22.50;59.10;;;;;;5025173;28;20460;-77
2023/04/21 07:37:25;;;;;;;4.77;3.30;;;22.50;59.00;;;;;;5018452;28;20515;-75
2023/04/21 07:39:54;;;;;;;3.60;2.80;;;22.50;59.00;;;;;;5022784;28;21030;-75
2023/04/21 07:42:25;;;;;;;3.57;3.27;;;22.60;58.90;;;;;;5025778;28;20463;-75
2023/04/21 07:44:56;;;;;;;3.10;2.80;;;22.60;58.90;;;;;;5020202;28;20498;-76
2023/04/21 07:47:24;;;;;;;3.30;2.87;;;22.60;58.70;;;;;;5030041;28;20467;-77
2023/04/21 07:49:52;;;;;;;4.03;3.10;;;22.70;58.60;;;;;;5026176;28;20467;-75
2023/04/21 07:52:20;;;;;;;3.43;3.10;;;22.70;58.50;;;;;;5024103;28;20479;-76
2023/04/21 07:54:50;;;;;;;3.50;3.20;;;22.70;58.50;;;;;;5024924;28;20469;-76
2023/04/21 07:57:18;;;;;;;4.33;3.00;;;22.70;58.40;;;;;;5025458;28;20511;-77
2023/04/21 07:59:50;;;;;;;3.27;2.97;;;22.70;58.40;;;;;;5025966;28;20459;-77
2023/04/21 08:02:18;;;;;;;2.70;2.50;;;22.70;58.30;;;;;;5025459;28;20542;-76
2023/04/21 08:04:47;;;;;;;5.27;3.30;;;22.80;58.40;;;;;;5024288;28;20956;-78
2023/04/21 08:07:15;;;;;;;2.67;2.40;;;22.80;58.20;;;;;;5023639;28;20594;-81
2023/04/21 08:09:43;;;;;;;5.27;3.00;;;22.80;58.20;;;;;;5025169;28;21362;-80
2023/04/21 08:12:30;;;;;;;3.30;2.97;;;22.80;58.00;;;;;;5024828;28;20468;-80
2023/04/21 08:15:04;;;;;;;3.10;2.80;;;22.80;58.00;;;;;;5016859;28;20787;-80
2023/04/21 08:17:32;;;;;;;5.13;4.20;;;22.80;57.90;;;;;;5026022;28;20551;-80
2023/04/21 08:20:01;;;;;;;3.40;3.20;;;22.80;57.90;;;;;;5023319;28;20835;-80
2023/04/21 08:22:29;;;;;;;3.07;2.77;;;22.70;57.90;;;;;;5021925;28;20502;-80
2023/04/21 08:24:57;;;;;;;4.17;3.47;;;22.70;57.90;;;;;;5025986;28;20992;-85
2023/04/21 08:27:25;;;;;;;5.80;2.70;;;22.70;57.90;;;;;;5028121;28;20470;-83
2023/04/21 08:29:55;;;;;;;4.10;3.13;;;22.70;58.10;;;;;;5025878;28;20463;-83
2023/04/21 08:32:25;;;;;;;2.57;2.20;;;22.70;58.30;;;;;;5022400;28;20480;-84
2023/04/21 08:34:54;;;;;;;4.30;3.90;;;22.70;58.30;;;;;;5023108;28;20457;-85
2023/04/21 08:37:23;;;;;;;3.87;2.90;;;22.70;58.30;;;;;;5018991;28;20567;-83
2023/04/21 08:39:52;;;;;;;3.60;2.90;;;22.70;58.20;;;;;;5022691;28;20594;-85
2023/04/21 08:42:20;;;;;;;3.00;2.80;;;22.70;58.30;;;;;;5024373;28;20559;-80
2023/04/21 08:44:49;;;;;;;4.60;2.90;;;22.80;58.20;;;;;;5014769;28;20460;-81
2023/04/21 08:47:23;;;;;;;7.63;3.17;;;22.80;58.20;;;;;;5019431;28;20846;-80
2023/04/21 08:49:53;;;;;;;2.93;2.70;;;22.80;58.10;;;;;;5022219;28;20451;-80
2023/04/21 08:52:21;;;;;;;3.33;2.63;;;22.90;58.00;;;;;;5017898;28;21068;-81
2023/04/21 08:54:52;;;;;;;3.60;3.10;;;22.90;58.00;;;;;;5015864;28;20488;-81
2023/04/21 08:57:20;;;;;;;3.50;2.83;;;22.90;57.90;;;;;;5023813;28;20458;-79
2023/04/21 08:59:48;;;;;;;3.30;2.73;;;23.00;57.90;;;;;;5027759;28;20530;-83
2023/04/21 09:02:19;;;;;;;2.87;2.67;;;23.00;57.80;;;;;;5028224;28;20469;-85
2023/04/21 09:04:50;;;;;;;3.00;2.53;;;23.00;57.80;;;;;;5028924;28;20468;-83
2023/04/21 09:07:32;;;;;;;2.43;2.30;;;23.00;57.80;;;;;;5031781;28;20955;-84
2023/04/21 09:10:00;;;;;;;3.20;2.90;;;23.00;57.70;;;;;;5032490;28;20550;-83
2023/04/21 09:12:29;;;;;;;4.23;2.53;;;23.00;57.70;;;;;;5029467;28;20472;-83
2023/04/21 09:14:58;;;;;;;4.03;2.40;;;23.10;57.70;;;;;;5024270;28;20471;-83
2023/04/21 09:17:32;;;;;;;2.93;2.73;;;23.10;57.70;;;;;;5019411;28;20540;-78
2023/04/21 09:20:15;;;;;;;2.50;2.30;;;23.10;57.60;;;;;;5031219;28;20463;-80
2023/04/21 09:22:44;;;;;;;3.57;2.77;;;23.10;57.50;;;;;;5013941;28;20467;-81
2023/04/21 09:25:16;;;;;;;2.83;2.63;;;23.10;57.50;;;;;;5023867;28;20460;-81
2023/04/21 09:27:45;;;;;;;3.70;3.00;;;23.10;57.40;;;;;;5022231;28;20467;-81
2023/04/21 09:30:14;;;;;;;2.90;2.20;;;23.10;57.40;;;;;;5026660;28;20534;-83
2023/04/21 09:32:43;;;;;;;3.37;2.57;;;23.10;57.40;;;;;;5024836;28;20537;-82
2023/04/21 09:35:12;;;;;;;2.87;2.40;;;23.20;57.40;;;;;;5022626;28;20459;-80
2023/04/21 09:37:43;;;;;;;2.63;2.43;;;23.20;57.30;;;;;;5022583;28;20491;-79
2023/04/21 09:40:14;;;;;;;3.70;2.47;;;23.20;57.30;;;;;;5013037;28;20948;-79
2023/04/21 09:42:42;;;;;;;2.70;2.50;;;23.20;57.40;;;;;;5028561;28;20459;-79
2023/04/21 09:45:13;;;;;;;3.97;2.60;;;23.20;57.40;;;;;;5030287;28;20478;-81
2023/04/21 09:47:50;;;;;;;3.07;2.87;;;23.20;57.40;;;;;;5028130;28;20491;-81
2023/04/21 09:50:21;;;;;;;2.70;2.50;;;23.20;57.50;;;;;;5020757;28;20452;-80
2023/04/21 09:53:15;;;;;;;2.87;2.67;;;23.20;57.50;;;;;;5027356;28;20480;-82
2023/04/21 09:55:46;;;;;;;2.50;2.30;;;23.20;57.30;;;;;;5029270;28;20510;-77
2023/04/21 09:58:20;;;;;;;3.40;3.10;;;23.20;57.30;;;;;;5027620;28;20522;-73
2023/04/21 10:00:48;;;;;;;3.17;2.67;;;23.20;57.20;;;;;;5024342;28;20530;-73
2023/04/21 10:03:20;;;;;;;2.50;2.30;;;23.30;57.20;;;;;;5029476;28;21303;-74
2023/04/21 10:05:49;;;;;;;2.77;2.47;;;23.30;57.10;;;;;;5036625;28;20462;-74
2023/04/21 10:08:18;;;;;;;2.83;2.63;;;23.30;57.10;;;;;;5026224;28;20464;-73
2023/04/21 10:10:46;;;;;;;2.70;2.40;;;23.30;57.10;;;;;;5025233;28;20469;-73
2023/04/21 10:13:17;;;;;;;3.93;2.43;;;23.30;57.10;;;;;;5017783;28;20580;-72
2023/04/21 10:15:45;;;;;;;2.67;2.30;;;23.30;57.10;;;;;;5028752;28;20457;-73
2023/04/21 10:18:16;;;;;;;2.20;2.10;;;23.30;57.00;;;;;;5028066;28;20464;-74
2023/04/21 10:20:57;;;;;;;2.37;2.27;;;23.30;56.90;;;;;;5027889;28;20463;-75
2023/04/21 10:23:30;;;;;;;2.90;2.70;;;23.30;56.90;;;;;;5023471;28;20462;-74
2023/04/21 10:26:03;;;;;;;2.70;2.50;;;23.30;56.90;;;;;;5022656;28;20453;-72
2023/04/21 10:28:42;;;;;;;2.77;2.57;;;23.40;56.80;;;;;;5028141;28;20456;-74
2023/04/21 10:31:21;;;;;;;2.33;2.10;;;23.40;56.70;;;;;;5027077;28;20456;-73
2023/04/21 10:34:21;;;;;;;2.03;1.93;;;23.40;56.60;;;;;;5024767;28;20567;-74
2023/04/21 10:37:14;;;;;;;3.10;2.83;;;23.40;56.60;;;;;;5020446;28;20548;-72
2023/04/21 10:39:52;;;;;;;2.53;2.43;;;23.40;56.70;;;;;;5021897;28;20506;-74
2023/04/21 10:42:44;;;;;;;2.27;2.07;;;23.30;56.80;;;;;;5025818;28;20555;-78
2023/04/21 10:45:13;;;;;;;2.00;1.90;;;23.30;56.80;;;;;;5012934;28;21050;-75
2023/04/21 10:47:50;;;;;;;2.67;2.57;;;23.30;56.80;;;;;;5022485;28;20568;-78
2023/04/21 10:50:21;;;;;;;2.53;2.33;;;23.30;56.80;;;;;;5031166;28;20453;-76
2023/04/21 10:52:59;;;;;;;2.00;1.90;;;23.30;56.80;;;;;;5016995;28;20469;-75
2023/04/21 10:55:29;;;;;;;2.33;2.20;;;23.30;56.90;;;;;;5024770;28;20458;-75
2023/04/21 10:58:01;;;;;;;2.70;2.50;;;23.30;56.90;;;;;;5020232;28;20466;-77
2023/04/21 11:00:29;;;;;;;2.20;2.10;;;23.30;57.00;;;;;;5025639;28;20830;-85
2023/04/21 11:02:59;;;;;;;2.43;2.33;;;23.30;57.20;;;;;;5006122;28;20502;-80
2023/04/21 11:05:35;;;;;;;2.30;2.10;;;23.40;57.30;;;;;;5032516;28;21017;-80
2023/04/21 11:08:13;;;;;;;2.27;2.10;;;23.40;57.20;;;;;;5034520;28;20959;-75
2023/04/21 11:10:51;;;;;;;2.90;2.60;;;23.50;57.20;;;;;;5021945;28;20454;-75
2023/04/21 11:13:25;;;;;;;2.20;2.00;;;23.50;57.20;;;;;;5027827;28;20528;-71
2023/04/21 11:15:57;;;;;;;2.57;2.37;;;23.50;57.30;;;;;;5027542;28;20441;-74
2023/04/21 11:18:33;;;;;;;2.17;2.07;;;23.60;57.20;;;;;;5023682;28;20489;-75
2023/04/21 11:21:08;;;;;;;2.70;2.50;;;23.60;57.20;;;;;;5024723;28;20448;-75
2023/04/21 11:23:40;;;;;;;2.63;2.43;;;23.60;57.20;;;;;;5018108;28;20457;-76
2023/04/21 11:26:08;;;;;;;3.40;3.20;;;23.60;57.30;;;;;;5023813;28;20493;-74
2023/04/21 11:28:36;;;;;;;2.50;2.30;;;23.70;57.20;;;;;;5021919;28;20448;-73
2023/04/21 11:31:05;;;;;;;2.50;2.30;;;23.80;57.10;;;;;;5020977;28;20496;-74
2023/04/21 11:33:36;;;;;;;4.10;2.47;;;24.00;56.90;;;;;;5021592;28;20481;-74
2023/04/21 11:36:06;;;;;;;2.40;2.10;;;24.10;56.80;;;;;;5019742;28;20445;-75
2023/04/21 11:38:40;;;;;;;2.37;2.27;;;24.20;56.60;;;;;;5019431;28;20492;-74
2023/04/21 11:41:09;;;;;;;2.33;2.23;;;24.40;56.20;;;;;;5020420;28;20488;-74
2023/04/21 11:43:45;;;;;;;2.43;2.33;;;24.60;55.80;;;;;;5018680;28;20448;-71
2023/04/21 11:46:17;;;;;;;2.60;2.40;;;24.80;55.40;;;;;;5030217;28;20534;-75
2023/04/21 11:48:46;;;;;;;2.13;2.03;;;25.00;55.10;;;;;;5028072;28;20443;-74
2023/04/21 11:51:17;;;;;;;2.63;2.43;;;25.10;54.80;;;;;;5022368;28;20466;-71
2023/04/21 11:53:50;;;;;;;3.00;2.70;;;25.20;54.40;;;;;;5020557;28;20485;-73
2023/04/21 11:56:20;;;;;;;2.27;1.97;;;25.30;54.20;;;;;;5001199;28;20546;-75
2023/04/21 11:58:51;;;;;;;3.20;2.33;;;25.40;54.00;;;;;;5025665;28;20546;-72
2023/04/21 12:01:24;;;;;;;2.50;2.30;;;25.40;54.00;;;;;;5024575;28;20466;-73
2023/04/21 12:03:53;;;;;;;2.10;2.00;;;25.40;53.90;;;;;;5030533;28;20534;-73
2023/04/21 12:06:23;;;;;;;2.13;2.03;;;25.40;53.70;;;;;;5027305;28;20445;-74
2023/04/21 12:09:01;;;;;;;1.73;1.63;;;25.30;54.00;;;;;;5015029;28;20459;-73
2023/04/21 12:11:31;;;;;;;2.60;2.40;;;25.30;54.10;;;;;;5029363;28;20482;-73
2023/04/21 12:14:00;;;;;;;2.03;1.93;;;25.30;53.90;;;;;;5017827;28;20486;-72
2023/04/21 12:16:28;;;;;;;2.20;2.10;;;25.20;54.20;;;;;;5026793;28;20458;-74
2023/04/21 12:18:57;;;;;;;2.20;2.10;;;25.30;54.30;;;;;;5032473;28;20453;-75
2023/04/21 12:21:29;;;;;;;2.03;1.90;;;25.30;54.10;;;;;;5020334;28;20958;-73
2023/04/21 12:23:58;;;;;;;2.20;2.10;;;25.40;54.00;;;;;;5022677;28;20545;-75
2023/04/21 12:26:26;;;;;;;2.70;2.50;;;25.50;53.80;;;;;;5028136;28;20530;-73
2023/04/21 12:28:55;;;;;;;2.17;1.97;;;25.50;53.60;;;;;;5022910;28;20489;-74
2023/04/21 12:31:23;;;;;;;1.97;1.87;;;25.50;53.70;;;;;;5024920;28;20551;-73
2023/04/21 12:33:51;;;;;;;2.60;2.40;;;25.50;53.70;;;;;;5017066;28;20506;-74
2023/04/21 12:36:19;;;;;;;2.33;2.23;;;25.60;53.60;;;;;;5026737;28;20461;-73
2023/04/21 12:38:47;;;;;;;2.43;2.17;;;25.60;53.50;;;;;;5017926;28;20510;-74
2023/04/21 12:41:17;;;;;;;2.43;2.20;;;25.70;53.40;;;;;;5021689;28;20456;-75
2023/04/21 12:43:46;;;;;;;2.10;2.00;;;25.70;53.30;;;;;;5018455;28;20508;-74
2023/04/21 12:46:14;;;;;;;2.23;2.03;;;25.80;53.30;;;;;;5020541;28;20451;-73
2023/04/21 12:48:43;;;;;;;2.30;2.20;;;25.80;53.20;;;;;;5018283;28;21048;-75
2023/04/21 12:51:13;;;;;;;2.13;2.03;;;25.90;53.10;;;;;;5026719;28;20455;-77
2023/04/21 12:53:41;;;;;;;2.17;2.07;;;25.90;53.00;;;;;;5026145;28;20485;-78
2023/04/21 12:56:10;;;;;;;2.20;2.10;;;25.90;53.00;;;;;;5023105;28;20950;-80
2023/04/21 12:58:41;;;;;;;2.13;1.50;;;25.90;53.20;;;;;;5026851;28;20967;-83
2023/04/21 13:01:10;;;;;;;2.03;1.90;;;26.00;53.10;;;;;;5021179;28;20457;-74
2023/04/21 13:03:39;;;;;;;2.60;2.40;;;26.00;53.10;;;;;;5023821;28;20521;-78